Terminal Aerodrome Forecast
Issued by NWS

Home | Current Version | Previous Version | Text Only | Print | Product List | Glossary On
Versions: 1 2 3 4 5 6 7 8 9 10 11 12 13 14 15 16
324
FTUS43 KBIS 290525
TAFMOT
TAF
KMOT 290525Z 2906/3006 VRB03KT P6SM SCT150
     FM291500 16005KT P6SM SCT035
     FM291800 17007KT P6SM BKN050
     FM300300 18005KT P6SM SCT070=

USA.gov is the U.S. government's official web portal to all federal, state and local government web resources and services.